sensor_id;sensor_type;location;lat;lon;timestamp;temperature;humidity
48206;DHT22;33995;48.202;16.260;2023-11-21T00:02:26;7.60;99.90
48206;DHT22;33995;48.202;16.260;2023-11-21T00:04:56;7.60;99.90
48206;DHT22;33995;48.202;16.260;2023-11-21T00:07:23;7.60;99.90
48206;DHT22;33995;48.202;16.260;2023-11-21T00:09:50;7.50;99.90
48206;DHT22;33995;48.202;16.260;2023-11-21T00:12:17;7.50;99.90
48206;DHT22;33995;48.202;16.260;2023-11-21T00:14:44;7.50;99.90
48206;DHT22;33995;48.202;16.260;2023-11-21T00:17:11;7.50;99.90
48206;DHT22;33995;48.202;16.260;2023-11-21T00:19:38;7.50;99.90
48206;DHT22;33995;48.202;16.260;2023-11-21T00:22:06;7.40;99.90
48206;DHT22;33995;48.202;16.260;2023-11-21T00:24:34;7.40;99.90
48206;DHT22;33995;48.202;16.260;2023-11-21T00:27:01;7.40;99.90
48206;DHT22;33995;48.202;16.260;2023-11-21T00:29:28;7.40;99.90
48206;DHT22;33995;48.202;16.260;2023-11-21T00:31:55;7.50;99.90
48206;DHT22;33995;48.202;16.260;2023-11-21T00:34:22;7.50;99.90
48206;DHT22;33995;48.202;16.260;2023-11-21T00:36:49;7.60;99.90
48206;DHT22;33995;48.202;16.260;2023-11-21T00:39:16;7.60;99.90
48206;DHT22;33995;48.202;16.260;2023-11-21T00:41:43;7.60;99.90
48206;DHT22;33995;48.202;16.260;2023-11-21T00:44:11;7.50;99.90
48206;DHT22;33995;48.202;16.260;2023-11-21T00:46:38;7.50;99.90
48206;DHT22;33995;48.202;16.260;2023-11-21T00:49:05;7.50;99.90
48206;DHT22;33995;48.202;16.260;2023-11-21T00:51:33;7.50;99.90
48206;DHT22;33995;48.202;16.260;2023-11-21T00:54:00;7.40;99.90
48206;DHT22;33995;48.202;16.260;2023-11-21T00:56:27;7.30;99.90
48206;DHT22;33995;48.202;16.260;2023-11-21T00:58:54;7.20;99.90
48206;DHT22;33995;48.202;16.260;2023-11-21T01:01:21;7.20;99.90
48206;DHT22;33995;48.202;16.260;2023-11-21T01:03:50;7.10;99.90
48206;DHT22;33995;48.202;16.260;2023-11-21T01:06:18;7.10;99.90
48206;DHT22;33995;48.202;16.260;2023-11-21T01:08:47;7.10;99.90
48206;DHT22;33995;48.202;16.260;2023-11-21T01:11:14;7.10;99.90
48206;DHT22;33995;48.202;16.260;2023-11-21T01:13:42;7.10;99.90
48206;DHT22;33995;48.202;16.260;2023-11-21T01:16:09;7.10;99.90
48206;DHT22;33995;48.202;16.260;2023-11-21T01:18:37;7.00;99.90
48206;DHT22;33995;48.202;16.260;2023-11-21T01:21:05;7.00;99.90
48206;DHT22;33995;48.202;16.260;2023-11-21T01:23:32;6.90;99.90
48206;DHT22;33995;48.202;16.260;2023-11-21T01:25:59;6.80;99.90
48206;DHT22;33995;48.202;16.260;2023-11-21T01:28:26;6.80;99.90
48206;DHT22;33995;48.202;16.260;2023-11-21T01:30:53;6.80;99.90
48206;DHT22;33995;48.202;16.260;2023-11-21T01:33:23;6.80;99.90
48206;DHT22;33995;48.202;16.260;2023-11-21T01:35:52;6.80;99.90
48206;DHT22;33995;48.202;16.260;2023-11-21T01:38:22;6.80;99.90
48206;DHT22;33995;48.202;16.260;2023-11-21T01:40:49;6.70;99.90
48206;DHT22;33995;48.202;16.260;2023-11-21T01:43:16;6.60;99.90
48206;DHT22;33995;48.202;16.260;2023-11-21T01:45:44;6.60;99.90
48206;DHT22;33995;48.202;16.260;2023-11-21T01:48:13;6.50;99.90
48206;DHT22;33995;48.202;16.260;2023-11-21T01:50:41;6.40;99.90
48206;DHT22;33995;48.202;16.260;2023-11-21T01:53:10;6.40;99.90
48206;DHT22;33995;48.202;16.260;2023-11-21T01:55:37;6.40;99.90
48206;DHT22;33995;48.202;16.260;2023-11-21T01:58:05;6.30;99.90
48206;DHT22;33995;48.202;16.260;2023-11-21T02:00:34;6.30;99.90
48206;DHT22;33995;48.202;16.260;2023-11-21T02:10:02;6.00;99.90
48206;DHT22;33995;48.202;16.260;2023-11-21T02:12:31;6.00;99.90
48206;DHT22;33995;48.202;16.260;2023-11-21T02:14:58;6.00;99.90
48206;DHT22;33995;48.202;16.260;2023-11-21T02:17:25;6.00;99.90
48206;DHT22;33995;48.202;16.260;2023-11-21T02:19:54;6.10;99.90
48206;DHT22;33995;48.202;16.260;2023-11-21T02:22:21;6.00;99.90
48206;DHT22;33995;48.202;16.260;2023-11-21T02:24:49;5.90;99.90
48206;DHT22;33995;48.202;16.260;2023-11-21T02:27:16;5.90;99.90
48206;DHT22;33995;48.202;16.260;2023-11-21T02:29:48;5.80;99.90
48206;DHT22;33995;48.202;16.260;2023-11-21T02:32:15;5.80;99.90
48206;DHT22;33995;48.202;16.260;2023-11-21T02:34:45;5.60;99.90
48206;DHT22;33995;48.202;16.260;2023-11-21T02:37:13;5.50;99.90
48206;DHT22;33995;48.202;16.260;2023-11-21T02:39:40;5.50;99.90
48206;DHT22;33995;48.202;16.260;2023-11-21T02:42:07;5.50;99.90
48206;DHT22;33995;48.202;16.260;2023-11-21T02:44:34;5.50;99.90
48206;DHT22;33995;48.202;16.260;2023-11-21T02:47:01;5.50;99.90
48206;DHT22;33995;48.202;16.260;2023-11-21T02:49:28;5.50;99.90
48206;DHT22;33995;48.202;16.260;2023-11-21T02:51:58;5.40;99.90
48206;DHT22;33995;48.202;16.260;2023-11-21T02:54:26;5.40;99.90
48206;DHT22;33995;48.202;16.260;2023-11-21T02:56:54;5.30;99.90
48206;DHT22;33995;48.202;16.260;2023-11-21T02:59:20;5.30;99.90
48206;DHT22;33995;48.202;16.260;2023-11-21T03:02:08;5.30;99.90
48206;DHT22;33995;48.202;16.260;2023-11-21T03:05:26;5.30;99.90
48206;DHT22;33995;48.202;16.260;2023-11-21T03:07:53;5.20;99.90
48206;DHT22;33995;48.202;16.260;2023-11-21T03:10:20;5.20;99.90
48206;DHT22;33995;48.202;16.260;2023-11-21T03:12:48;5.10;99.90
48206;DHT22;33995;48.202;16.260;2023-11-21T03:15:15;5.10;99.90
48206;DHT22;33995;48.202;16.260;2023-11-21T03:17:42;5.10;99.90
48206;DHT22;33995;48.202;16.260;2023-11-21T03:20:10;4.90;99.90
48206;DHT22;33995;48.202;16.260;2023-11-21T03:22:38;5.00;99.90
48206;DHT22;33995;48.202;16.260;2023-11-21T03:25:06;4.90;99.90
48206;DHT22;33995;48.202;16.260;2023-11-21T03:27:37;4.90;99.90
48206;DHT22;33995;48.202;16.260;2023-11-21T03:30:08;5.10;99.90
48206;DHT22;33995;48.202;16.260;2023-11-21T03:32:35;4.90;99.90
48206;DHT22;33995;48.202;16.260;2023-11-21T03:35:02;4.80;99.90
48206;DHT22;33995;48.202;16.260;2023-11-21T03:37:30;4.90;99.90
48206;DHT22;33995;48.202;16.260;2023-11-21T03:39:57;4.80;99.90
48206;DHT22;33995;48.202;16.260;2023-11-21T03:42:24;4.80;99.90
48206;DHT22;33995;48.202;16.260;2023-11-21T03:44:53;4.80;99.90
48206;DHT22;33995;48.202;16.260;2023-11-21T03:47:20;4.80;99.90
48206;DHT22;33995;48.202;16.260;2023-11-21T03:49:47;4.70;99.90
48206;DHT22;33995;48.202;16.260;2023-11-21T03:52:16;4.70;99.90
48206;DHT22;33995;48.202;16.260;2023-11-21T03:54:43;4.60;99.90
48206;DHT22;33995;48.202;16.260;2023-11-21T03:57:11;4.70;99.90
48206;DHT22;33995;48.202;16.260;2023-11-21T03:59:41;4.60;99.90
48206;DHT22;33995;48.202;16.260;2023-11-21T04:02:09;4.60;99.90
48206;DHT22;33995;48.202;16.260;2023-11-21T04:04:36;4.70;99.90
48206;DHT22;33995;48.202;16.260;2023-11-21T04:07:03;4.70;99.90
48206;DHT22;33995;48.202;16.260;2023-11-21T04:09:31;4.60;99.90
48206;DHT22;33995;48.202;16.260;2023-11-21T04:11:58;4.50;99.90
48206;DHT22;33995;48.202;16.260;2023-11-21T04:14:25;4.60;99.90
48206;DHT22;33995;48.202;16.260;2023-11-21T04:16:52;4.60;99.90
48206;DHT22;33995;48.202;16.260;2023-11-21T04:19:20;4.60;99.90
48206;DHT22;33995;48.202;16.260;2023-11-21T04:21:47;4.60;99.90
48206;DHT22;33995;48.202;16.260;2023-11-21T04:24:14;4.60;99.90
48206;DHT22;33995;48.202;16.260;2023-11-21T04:26:41;4.60;99.90
48206;DHT22;33995;48.202;16.260;2023-11-21T04:29:08;4.50;99.90
48206;DHT22;33995;48.202;16.260;2023-11-21T04:31:35;4.50;99.90
48206;DHT22;33995;48.202;16.260;2023-11-21T04:34:02;4.40;99.90
48206;DHT22;33995;48.202;16.260;2023-11-21T04:36:30;4.30;99.90
48206;DHT22;33995;48.202;16.260;2023-11-21T04:38:58;4.40;99.90
48206;DHT22;33995;48.202;16.260;2023-11-21T04:41:25;4.30;99.90
48206;DHT22;33995;48.202;16.260;2023-11-21T04:43:52;4.40;99.90
48206;DHT22;33995;48.202;16.260;2023-11-21T04:46:19;4.40;99.90
48206;DHT22;33995;48.202;16.260;2023-11-21T04:48:46;4.30;99.90
48206;DHT22;33995;48.202;16.260;2023-11-21T04:51:13;4.30;99.90
48206;DHT22;33995;48.202;16.260;2023-11-21T04:53:41;4.30;99.90
48206;DHT22;33995;48.202;16.260;2023-11-21T04:56:08;4.40;99.90
48206;DHT22;33995;48.202;16.260;2023-11-21T04:58:35;4.40;99.90
48206;DHT22;33995;48.202;16.260;2023-11-21T05:01:02;4.40;99.90
48206;DHT22;33995;48.202;16.260;2023-11-21T05:03:34;4.30;99.90
48206;DHT22;33995;48.202;16.260;2023-11-21T05:06:02;4.40;99.90
48206;DHT22;33995;48.202;16.260;2023-11-21T05:08:30;4.30;99.90
48206;DHT22;33995;48.202;16.260;2023-11-21T05:10:57;4.40;99.90
48206;DHT22;33995;48.202;16.260;2023-11-21T05:13:24;4.40;99.90
48206;DHT22;33995;48.202;16.260;2023-11-21T05:15:55;4.40;99.90
48206;DHT22;33995;48.202;16.260;2023-11-21T05:18:25;4.30;99.90
48206;DHT22;33995;48.202;16.260;2023-11-21T05:20:56;4.30;99.90
48206;DHT22;33995;48.202;16.260;2023-11-21T05:23:24;4.40;99.90
48206;DHT22;33995;48.202;16.260;2023-11-21T05:25:51;4.40;99.90
48206;DHT22;33995;48.202;16.260;2023-11-21T05:28:18;4.50;99.90
48206;DHT22;33995;48.202;16.260;2023-11-21T05:30:45;4.50;99.90
48206;DHT22;33995;48.202;16.260;2023-11-21T05:33:12;4.50;99.90
48206;DHT22;33995;48.202;16.260;2023-11-21T05:35:39;4.50;99.90
48206;DHT22;33995;48.202;16.260;2023-11-21T05:38:06;4.50;99.90
48206;DHT22;33995;48.202;16.260;2023-11-21T05:40:33;4.40;99.90
48206;DHT22;33995;48.202;16.260;2023-11-21T05:43:00;4.40;99.90
48206;DHT22;33995;48.202;16.260;2023-11-21T05:45:27;4.50;99.90
48206;DHT22;33995;48.202;16.260;2023-11-21T05:47:55;4.50;99.90
48206;DHT22;33995;48.202;16.260;2023-11-21T05:50:22;4.50;99.90
48206;DHT22;33995;48.202;16.260;2023-11-21T05:52:50;4.50;99.90
48206;DHT22;33995;48.202;16.260;2023-11-21T05:55:17;4.40;99.90
48206;DHT22;33995;48.202;16.260;2023-11-21T05:57:44;4.40;99.90
48206;DHT22;33995;48.202;16.260;2023-11-21T06:00:13;4.30;99.90
48206;DHT22;33995;48.202;16.260;2023-11-21T06:02:49;4.40;99.90
48206;DHT22;33995;48.202;16.260;2023-11-21T06:05:19;4.40;99.90
48206;DHT22;33995;48.202;16.260;2023-11-21T06:07:46;4.40;99.90
48206;DHT22;33995;48.202;16.260;2023-11-21T06:10:13;4.50;99.90
48206;DHT22;33995;48.202;16.260;2023-11-21T06:12:41;4.50;99.90
48206;DHT22;33995;48.202;16.260;2023-11-21T06:15:11;4.60;99.90
48206;DHT22;33995;48.202;16.260;2023-11-21T06:17:41;4.60;99.90
48206;DHT22;33995;48.202;16.260;2023-11-21T06:20:10;4.60;99.90
48206;DHT22;33995;48.202;16.260;2023-11-21T06:22:42;4.60;99.90
48206;DHT22;33995;48.202;16.260;2023-11-21T06:25:11;4.70;99.90
48206;DHT22;33995;48.202;16.260;2023-11-21T06:27:44;4.70;99.90
48206;DHT22;33995;48.202;16.260;2023-11-21T06:30:13;4.70;99.90
48206;DHT22;33995;48.202;16.260;2023-11-21T06:32:41;4.80;99.90
48206;DHT22;33995;48.202;16.260;2023-11-21T06:35:12;4.90;99.90
48206;DHT22;33995;48.202;16.260;2023-11-21T06:37:40;4.90;99.90
48206;DHT22;33995;48.202;16.260;2023-11-21T06:40:07;4.90;99.90
48206;DHT22;33995;48.202;16.260;2023-11-21T06:42:36;4.90;99.90
48206;DHT22;33995;48.202;16.260;2023-11-21T06:45:05;5.00;99.90
48206;DHT22;33995;48.202;16.260;2023-11-21T06:47:32;5.10;99.90
48206;DHT22;33995;48.202;16.260;2023-11-21T06:49:59;5.20;99.90
48206;DHT22;33995;48.202;16.260;2023-11-21T06:52:27;5.20;99.90
48206;DHT22;33995;48.202;16.260;2023-11-21T06:54:54;5.30;99.90
48206;DHT22;33995;48.202;16.260;2023-11-21T06:57:23;5.30;99.90
48206;DHT22;33995;48.202;16.260;2023-11-21T06:59:50;5.30;99.90
48206;DHT22;33995;48.202;16.260;2023-11-21T07:02:17;5.40;99.90
48206;DHT22;33995;48.202;16.260;2023-11-21T07:04:47;5.50;99.90
48206;DHT22;33995;48.202;16.260;2023-11-21T07:07:15;5.40;99.90
48206;DHT22;33995;48.202;16.260;2023-11-21T07:09:45;5.50;99.90
48206;DHT22;33995;48.202;16.260;2023-11-21T07:12:13;5.50;99.90
48206;DHT22;33995;48.202;16.260;2023-11-21T07:14:40;5.50;99.90
48206;DHT22;33995;48.202;16.260;2023-11-21T07:17:13;5.60;99.90
48206;DHT22;33995;48.202;16.260;2023-11-21T07:19:40;5.50;99.90
48206;DHT22;33995;48.202;16.260;2023-11-21T07:22:08;5.70;99.90
48206;DHT22;33995;48.202;16.260;2023-11-21T07:24:36;5.70;99.90
48206;DHT22;33995;48.202;16.260;2023-11-21T07:27:03;5.80;99.90
48206;DHT22;33995;48.202;16.260;2023-11-21T07:29:31;5.80;99.90
48206;DHT22;33995;48.202;16.260;2023-11-21T07:31:58;5.90;99.90
48206;DHT22;33995;48.202;16.260;2023-11-21T07:34:25;6.00;99.90
48206;DHT22;33995;48.202;16.260;2023-11-21T07:36:53;6.00;99.90
48206;DHT22;33995;48.202;16.260;2023-11-21T07:39:19;6.10;99.90
48206;DHT22;33995;48.202;16.260;2023-11-21T07:41:47;6.30;99.90
48206;DHT22;33995;48.202;16.260;2023-11-21T07:44:17;6.40;99.90
48206;DHT22;33995;48.202;16.260;2023-11-21T07:46:44;6.40;99.90
48206;DHT22;33995;48.202;16.260;2023-11-21T07:49:12;6.50;99.90
48206;DHT22;33995;48.202;16.260;2023-11-21T07:51:43;6.60;99.90
48206;DHT22;33995;48.202;16.260;2023-11-21T07:54:11;6.70;99.90
48206;DHT22;33995;48.202;16.260;2023-11-21T07:56:38;6.80;99.90
48206;DHT22;33995;48.202;16.260;2023-11-21T07:59:05;6.90;99.90
48206;DHT22;33995;48.202;16.260;2023-11-21T08:01:32;7.10;99.90
48206;DHT22;33995;48.202;16.260;2023-11-21T08:04:00;7.00;99.90
48206;DHT22;33995;48.202;16.260;2023-11-21T08:06:31;7.10;99.90
48206;DHT22;33995;48.202;16.260;2023-11-21T08:08:58;7.20;99.90
48206;DHT22;33995;48.202;16.260;2023-11-21T08:11:25;7.30;99.90
48206;DHT22;33995;48.202;16.260;2023-11-21T08:13:53;7.40;99.90
48206;DHT22;33995;48.202;16.260;2023-11-21T08:16:21;7.40;99.90
48206;DHT22;33995;48.202;16.260;2023-11-21T08:18:48;7.50;99.90
48206;DHT22;33995;48.202;16.260;2023-11-21T08:21:15;7.50;99.90
48206;DHT22;33995;48.202;16.260;2023-11-21T08:23:42;7.50;99.90
48206;DHT22;33995;48.202;16.260;2023-11-21T08:26:09;7.50;99.90
48206;DHT22;33995;48.202;16.260;2023-11-21T08:28:36;7.50;99.90
48206;DHT22;33995;48.202;16.260;2023-11-21T08:31:03;7.50;99.90
48206;DHT22;33995;48.202;16.260;2023-11-21T08:33:32;7.60;99.90
48206;DHT22;33995;48.202;16.260;2023-11-21T08:35:59;7.50;99.90
48206;DHT22;33995;48.202;16.260;2023-11-21T08:38:28;7.40;99.90
48206;DHT22;33995;48.202;16.260;2023-11-21T08:40:55;7.40;99.90
48206;DHT22;33995;48.202;16.260;2023-11-21T08:43:22;7.70;99.90
48206;DHT22;33995;48.202;16.260;2023-11-21T08:45:51;7.80;99.90
48206;DHT22;33995;48.202;16.260;2023-11-21T08:48:18;8.00;99.90
48206;DHT22;33995;48.202;16.260;2023-11-21T08:50:45;8.40;99.90
48206;DHT22;33995;48.202;16.260;2023-11-21T08:53:12;8.50;99.90
48206;DHT22;33995;48.202;16.260;2023-11-21T08:55:39;8.80;99.90
48206;DHT22;33995;48.202;16.260;2023-11-21T08:58:06;8.90;99.90
48206;DHT22;33995;48.202;16.260;2023-11-21T09:00:33;9.20;99.90
48206;DHT22;33995;48.202;16.260;2023-11-21T09:03:03;9.40;99.90
48206;DHT22;33995;48.202;16.260;2023-11-21T09:05:38;9.80;99.90
48206;DHT22;33995;48.202;16.260;2023-11-21T09:08:06;10.00;99.90
48206;DHT22;33995;48.202;16.260;2023-11-21T09:10:36;10.30;99.90
48206;DHT22;33995;48.202;16.260;2023-11-21T09:13:03;10.50;99.90
48206;DHT22;33995;48.202;16.260;2023-11-21T09:15:30;10.60;99.90
48206;DHT22;33995;48.202;16.260;2023-11-21T09:17:57;10.60;99.90
48206;DHT22;33995;48.202;16.260;2023-11-21T09:20:28;10.60;99.90
48206;DHT22;33995;48.202;16.260;2023-11-21T09:22:55;10.80;99.90
48206;DHT22;33995;48.202;16.260;2023-11-21T09:25:23;10.90;99.90
48206;DHT22;33995;48.202;16.260;2023-11-21T09:27:50;11.00;99.90
48206;DHT22;33995;48.202;16.260;2023-11-21T09:30:17;11.10;99.90
48206;DHT22;33995;48.202;16.260;2023-11-21T09:32:44;11.30;99.90
48206;DHT22;33995;48.202;16.260;2023-11-21T09:35:12;11.30;99.90
48206;DHT22;33995;48.202;16.260;2023-11-21T09:37:41;11.40;99.90
48206;DHT22;33995;48.202;16.260;2023-11-21T09:40:10;11.30;99.90
48206;DHT22;33995;48.202;16.260;2023-11-21T09:42:46;11.30;99.90
48206;DHT22;33995;48.202;16.260;2023-11-21T09:45:39;11.30;99.90
48206;DHT22;33995;48.202;16.260;2023-11-21T09:48:07;11.40;99.90
48206;DHT22;33995;48.202;16.260;2023-11-21T09:50:37;11.40;99.90
48206;DHT22;33995;48.202;16.260;2023-11-21T09:55:43;11.70;99.90
48206;DHT22;33995;48.202;16.260;2023-11-21T09:58:11;11.60;99.90
48206;DHT22;33995;48.202;16.260;2023-11-21T10:00:45;11.70;99.90
48206;DHT22;33995;48.202;16.260;2023-11-21T10:03:13;11.90;99.90
48206;DHT22;33995;48.202;16.260;2023-11-21T10:05:42;12.00;99.90
48206;DHT22;33995;48.202;16.260;2023-11-21T10:08:12;11.90;99.90
48206;DHT22;33995;48.202;16.260;2023-11-21T10:10:46;11.70;99.90
48206;DHT22;33995;48.202;16.260;2023-11-21T10:13:15;11.70;99.90
48206;DHT22;33995;48.202;16.260;2023-11-21T10:15:51;11.70;99.90
48206;DHT22;33995;48.202;16.260;2023-11-21T10:18:19;11.60;99.90
48206;DHT22;33995;48.202;16.260;2023-11-21T10:20:46;11.60;99.90
48206;DHT22;33995;48.202;16.260;2023-11-21T10:23:20;11.70;99.90
48206;DHT22;33995;48.202;16.260;2023-11-21T10:25:53;11.90;99.90
48206;DHT22;33995;48.202;16.260;2023-11-21T10:28:24;12.20;99.90
48206;DHT22;33995;48.202;16.260;2023-11-21T10:30:51;12.30;99.90
48206;DHT22;33995;48.202;16.260;2023-11-21T10:33:27;13.10;99.90
48206;DHT22;33995;48.202;16.260;2023-11-21T10:35:54;13.00;99.90
48206;DHT22;33995;48.202;16.260;2023-11-21T10:38:21;12.80;99.90
48206;DHT22;33995;48.202;16.260;2023-11-21T10:40:51;12.60;99.90
48206;DHT22;33995;48.202;16.260;2023-11-21T10:43:19;12.40;99.90
48206;DHT22;33995;48.202;16.260;2023-11-21T10:45:46;12.30;99.90
48206;DHT22;33995;48.202;16.260;2023-11-21T10:48:14;12.70;99.90
48206;DHT22;33995;48.202;16.260;2023-11-21T10:50:45;13.00;99.90
48206;DHT22;33995;48.202;16.260;2023-11-21T10:53:13;14.60;99.90
48206;DHT22;33995;48.202;16.260;2023-11-21T10:55:40;17.20;99.90
48206;DHT22;33995;48.202;16.260;2023-11-21T10:58:08;15.50;99.90
48206;DHT22;33995;48.202;16.260;2023-11-21T11:00:38;15.40;99.90
48206;DHT22;33995;48.202;16.260;2023-11-21T11:03:07;16.40;99.90
48206;DHT22;33995;48.202;16.260;2023-11-21T11:05:43;16.80;99.90
48206;DHT22;33995;48.202;16.260;2023-11-21T11:08:21;18.30;99.90
48206;DHT22;33995;48.202;16.260;2023-11-21T11:10:54;18.70;99.90
48206;DHT22;33995;48.202;16.260;2023-11-21T11:13:22;20.00;99.90
48206;DHT22;33995;48.202;16.260;2023-11-21T11:15:50;22.20;99.90
48206;DHT22;33995;48.202;16.260;2023-11-21T11:18:18;22.80;99.90
48206;DHT22;33995;48.202;16.260;2023-11-21T11:20:51;22.90;98.40
48206;DHT22;33995;48.202;16.260;2023-11-21T11:26:47;21.10;99.80
48206;DHT22;33995;48.202;16.260;2023-11-21T11:29:31;20.00;99.80
48206;DHT22;33995;48.202;16.260;2023-11-21T11:32:13;18.50;99.90
48206;DHT22;33995;48.202;16.260;2023-11-21T11:35:03;17.90;99.90
48206;DHT22;33995;48.202;16.260;2023-11-21T11:37:31;17.80;99.90
48206;DHT22;33995;48.202;16.260;2023-11-21T11:40:00;20.30;99.60
48206;DHT22;33995;48.202;16.260;2023-11-21T11:42:27;18.20;99.90
48206;DHT22;33995;48.202;16.260;2023-11-21T11:44:54;16.20;99.90
48206;DHT22;33995;48.202;16.260;2023-11-21T11:47:28;15.10;99.90
48206;DHT22;33995;48.202;16.260;2023-11-21T11:50:11;14.50;99.90
48206;DHT22;33995;48.202;16.260;2023-11-21T11:52:46;14.40;99.90
48206;DHT22;33995;48.202;16.260;2023-11-21T11:55:15;16.90;99.90
48206;DHT22;33995;48.202;16.260;2023-11-21T12:02:55;17.90;99.90
48206;DHT22;33995;48.202;16.260;2023-11-21T12:05:24;16.40;99.90
48206;DHT22;33995;48.202;16.260;2023-11-21T12:07:59;15.80;99.90
48206;DHT22;33995;48.202;16.260;2023-11-21T12:10:35;15.20;99.90
48206;DHT22;33995;48.202;16.260;2023-11-21T12:13:08;15.00;99.90
48206;DHT22;33995;48.202;16.260;2023-11-21T12:15:35;14.50;99.90
48206;DHT22;33995;48.202;16.260;2023-11-21T12:18:04;14.50;99.90
48206;DHT22;33995;48.202;16.260;2023-11-21T12:20:33;14.50;99.90
48206;DHT22;33995;48.202;16.260;2023-11-21T12:23:06;14.50;99.90
48206;DHT22;33995;48.202;16.260;2023-11-21T12:25:33;14.20;99.90
48206;DHT22;33995;48.202;16.260;2023-11-21T12:28:01;13.90;99.90
48206;DHT22;33995;48.202;16.260;2023-11-21T12:30:31;13.50;99.90
48206;DHT22;33995;48.202;16.260;2023-11-21T12:32:59;13.00;99.90
48206;DHT22;33995;48.202;16.260;2023-11-21T12:35:33;12.70;99.90
48206;DHT22;33995;48.202;16.260;2023-11-21T12:38:03;12.50;99.90
48206;DHT22;33995;48.202;16.260;2023-11-21T12:40:32;12.20;99.90
48206;DHT22;33995;48.202;16.260;2023-11-21T12:43:02;12.00;99.90
48206;DHT22;33995;48.202;16.260;2023-11-21T12:45:31;11.90;99.90
48206;DHT22;33995;48.202;16.260;2023-11-21T12:48:03;11.90;99.90
48206;DHT22;33995;48.202;16.260;2023-11-21T12:50:35;11.80;99.90
48206;DHT22;33995;48.202;16.260;2023-11-21T12:53:05;11.50;99.90
48206;DHT22;33995;48.202;16.260;2023-11-21T12:55:33;11.60;99.90
48206;DHT22;33995;48.202;16.260;2023-11-21T12:58:06;11.50;99.90
48206;DHT22;33995;48.202;16.260;2023-11-21T13:00:48;11.40;99.90
48206;DHT22;33995;48.202;16.260;2023-11-21T13:03:16;11.30;99.90
48206;DHT22;33995;48.202;16.260;2023-11-21T13:05:48;11.20;99.90
48206;DHT22;33995;48.202;16.260;2023-11-21T13:08:23;11.10;99.90
48206;DHT22;33995;48.202;16.260;2023-11-21T13:10:56;11.00;99.90
48206;DHT22;33995;48.202;16.260;2023-11-21T13:13:25;11.00;99.90
48206;DHT22;33995;48.202;16.260;2023-11-21T13:16:04;11.00;99.90
48206;DHT22;33995;48.202;16.260;2023-11-21T13:18:32;10.90;99.90
48206;DHT22;33995;48.202;16.260;2023-11-21T13:21:01;10.90;99.90
48206;DHT22;33995;48.202;16.260;2023-11-21T13:23:34;10.80;99.90
48206;DHT22;33995;48.202;16.260;2023-11-21T13:26:03;10.90;99.90
48206;DHT22;33995;48.202;16.260;2023-11-21T13:28:34;10.90;99.90
48206;DHT22;33995;48.202;16.260;2023-11-21T13:31:03;10.90;99.90
48206;DHT22;33995;48.202;16.260;2023-11-21T13:33:42;10.90;99.90
48206;DHT22;33995;48.202;16.260;2023-11-21T13:36:14;10.90;99.90
48206;DHT22;33995;48.202;16.260;2023-11-21T13:38:42;10.80;99.90
48206;DHT22;33995;48.202;16.260;2023-11-21T13:41:11;10.80;99.90
48206;DHT22;33995;48.202;16.260;2023-11-21T13:43:40;10.80;99.90
48206;DHT22;33995;48.202;16.260;2023-11-21T13:46:10;10.90;99.90
48206;DHT22;33995;48.202;16.260;2023-11-21T13:48:43;11.30;99.90
48206;DHT22;33995;48.202;16.260;2023-11-21T13:51:18;12.10;99.90
48206;DHT22;33995;48.202;16.260;2023-11-21T13:53:46;11.60;99.90
48206;DHT22;33995;48.202;16.260;2023-11-21T13:56:19;11.30;99.90
48206;DHT22;33995;48.202;16.260;2023-11-21T13:58:51;11.10;99.90
48206;DHT22;33995;48.202;16.260;2023-11-21T14:01:23;10.90;99.90
48206;DHT22;33995;48.202;16.260;2023-11-21T14:03:57;10.90;99.90
48206;DHT22;33995;48.202;16.260;2023-11-21T14:06:29;10.90;99.90
48206;DHT22;33995;48.202;16.260;2023-11-21T14:09:06;10.80;99.90
48206;DHT22;33995;48.202;16.260;2023-11-21T14:11:34;10.70;99.90
48206;DHT22;33995;48.202;16.260;2023-11-21T14:14:12;10.70;99.90
48206;DHT22;33995;48.202;16.260;2023-11-21T14:16:39;10.60;99.90
48206;DHT22;33995;48.202;16.260;2023-11-21T14:19:06;10.50;99.90
48206;DHT22;33995;48.202;16.260;2023-11-21T14:21:46;10.50;99.90
48206;DHT22;33995;48.202;16.260;2023-11-21T14:24:13;10.40;99.90
48206;DHT22;33995;48.202;16.260;2023-11-21T14:26:41;10.30;99.90
48206;DHT22;33995;48.202;16.260;2023-11-21T14:29:09;10.30;99.90
48206;DHT22;33995;48.202;16.260;2023-11-21T14:31:42;10.20;99.90
48206;DHT22;33995;48.202;16.260;2023-11-21T14:34:10;10.10;99.90
48206;DHT22;33995;48.202;16.260;2023-11-21T14:36:39;10.10;99.90
48206;DHT22;33995;48.202;16.260;2023-11-21T14:39:07;10.10;99.90
48206;DHT22;33995;48.202;16.260;2023-11-21T14:41:36;10.00;99.90
48206;DHT22;33995;48.202;16.260;2023-11-21T14:44:05;9.90;99.90
48206;DHT22;33995;48.202;16.260;2023-11-21T14:46:34;9.90;99.90
48206;DHT22;33995;48.202;16.260;2023-11-21T14:49:03;9.90;99.90
48206;DHT22;33995;48.202;16.260;2023-11-21T14:51:53;9.80;99.90
48206;DHT22;33995;48.202;16.260;2023-11-21T14:54:31;9.80;99.90
48206;DHT22;33995;48.202;16.260;2023-11-21T14:57:09;9.80;99.90
48206;DHT22;33995;48.202;16.260;2023-11-21T14:59:46;9.70;99.90
48206;DHT22;33995;48.202;16.260;2023-11-21T15:02:15;9.60;99.90
48206;DHT22;33995;48.202;16.260;2023-11-21T15:04:48;9.40;99.90
48206;DHT22;33995;48.202;16.260;2023-11-21T15:07:18;9.30;99.90
48206;DHT22;33995;48.202;16.260;2023-11-21T15:09:45;9.20;99.90
48206;DHT22;33995;48.202;16.260;2023-11-21T15:12:12;9.20;99.90
48206;DHT22;33995;48.202;16.260;2023-11-21T15:14:47;9.20;99.90
48206;DHT22;33995;48.202;16.260;2023-11-21T15:17:16;9.30;99.90
48206;DHT22;33995;48.202;16.260;2023-11-21T15:20:10;9.30;99.90
48206;DHT22;33995;48.202;16.260;2023-11-21T15:22:39;9.10;99.90
48206;DHT22;33995;48.202;16.260;2023-11-21T15:25:07;9.20;99.90
48206;DHT22;33995;48.202;16.260;2023-11-21T15:27:37;9.00;99.90
48206;DHT22;33995;48.202;16.260;2023-11-21T15:30:05;8.90;99.90
48206;DHT22;33995;48.202;16.260;2023-11-21T15:32:32;8.70;99.90
48206;DHT22;33995;48.202;16.260;2023-11-21T15:35:00;8.70;99.90
48206;DHT22;33995;48.202;16.260;2023-11-21T15:37:27;8.60;99.90
48206;DHT22;33995;48.202;16.260;2023-11-21T15:39:55;8.50;99.90
48206;DHT22;33995;48.202;16.260;2023-11-21T15:42:23;8.50;99.90
48206;DHT22;33995;48.202;16.260;2023-11-21T15:44:50;8.50;99.90
48206;DHT22;33995;48.202;16.260;2023-11-21T15:47:18;8.40;99.90
48206;DHT22;33995;48.202;16.260;2023-11-21T15:49:45;8.40;99.90
48206;DHT22;33995;48.202;16.260;2023-11-21T15:52:16;8.50;99.90
48206;DHT22;33995;48.202;16.260;2023-11-21T15:54:45;8.40;99.90
48206;DHT22;33995;48.202;16.260;2023-11-21T15:57:13;8.40;99.90